Magdagaci, Russia
Current Conditions -  °F | °C
As of 10:30 PM on Saturday 01 Nov 2014 (Local Time) from UHBB Reporting Station
Overcast Overcast  
Wind Chill: 21°   Ceiling: 10000
Heat Index: 21°   Visibility: 6mi
Dew Point: 21°   Wind: 2mph
Humidity: 100%   Direction: NA
Pressure: 29.85"   Gusts: NA
Location:  53.47°N, 125.82°E
Report Text: UHBB 011330Z VRB01MPS 9999 SCT026CB OVC100 M06/M06 Q1011 NOSIGRMK QFE740/0987 36190050
Loading
Personal Weather Stations






























Interactive Weather Map
Tropical Storm Tracking
New forecast layout! Learn more

10-Day Weather Forecast

Advertisements
Track Severe Weather on mobile